sensor_id;sensor_type;location;lat;lon;timestamp;pressure;altitude;pressure_sealevel;temperature;humidity
59043;BME280;44826;51.596;5.624;2023-02-05T00:00:49;103598.38;;;6.76;95.53
59043;BME280;44826;51.596;5.624;2023-02-05T00:03:15;103598.38;;;6.76;95.75
59043;BME280;44826;51.596;5.624;2023-02-05T00:05:40;103595.81;;;6.76;95.84
59043;BME280;44826;51.596;5.624;2023-02-05T00:08:06;103603.56;;;6.76;95.65
59043;BME280;44826;51.596;5.624;2023-02-05T00:10:31;103593.22;;;6.76;95.94
59043;BME280;44826;51.596;5.624;2023-02-05T00:12:57;103590.63;;;6.76;96.03
59043;BME280;44826;51.596;5.624;2023-02-05T00:15:22;103592.31;;;6.76;95.91
59043;BME280;44826;51.596;5.624;2023-02-05T00:17:47;103581.09;;;6.75;95.75
59043;BME280;44826;51.596;5.624;2023-02-05T00:20:13;103587.09;;;6.74;95.82
59043;BME280;44826;51.596;5.624;2023-02-05T00:22:38;103577.56;;;6.73;95.96
59043;BME280;44826;51.596;5.624;2023-02-05T00:25:04;103573.31;;;6.74;95.70
59043;BME280;44826;51.596;5.624;2023-02-05T00:27:31;103568.06;;;6.72;96.18
59043;BME280;44826;51.596;5.624;2023-02-05T00:29:56;103569.00;;;6.74;95.66
59043;BME280;44826;51.596;5.624;2023-02-05T00:32:22;103556.91;;;6.75;96.02
59043;BME280;44826;51.596;5.624;2023-02-05T00:34:47;103548.28;;;6.74;96.23
59043;BME280;44826;51.596;5.624;2023-02-05T00:37:12;103545.69;;;6.74;96.56
59043;BME280;44826;51.596;5.624;2023-02-05T00:39:38;103544.88;;;6.75;96.38
59043;BME280;44826;51.596;5.624;2023-02-05T00:42:03;103544.88;;;6.75;96.58
59043;BME280;44826;51.596;5.624;2023-02-05T00:44:29;103544.06;;;6.76;96.88
59043;BME280;44826;51.596;5.624;2023-02-05T00:46:54;103538.91;;;6.78;96.70
59043;BME280;44826;51.596;5.624;2023-02-05T00:49:19;103542.41;;;6.78;96.68
59043;BME280;44826;51.596;5.624;2023-02-05T00:51:44;103546.75;;;6.79;96.79
59043;BME280;44826;51.596;5.624;2023-02-05T00:54:10;103539.03;;;6.81;97.21
59043;BME280;44826;51.596;5.624;2023-02-05T00:56:35;103533.91;;;6.82;97.12
59043;BME280;44826;51.596;5.624;2023-02-05T00:59:01;103534.75;;;6.81;97.04
59043;BME280;44826;51.596;5.624;2023-02-05T01:01:26;103528.75;;;6.82;97.10
59043;BME280;44826;51.596;5.624;2023-02-05T01:03:52;103539.13;;;6.84;97.30
59043;BME280;44826;51.596;5.624;2023-02-05T01:06:17;103537.41;;;6.84;96.97
59043;BME280;44826;51.596;5.624;2023-02-05T01:08:42;103533.13;;;6.85;97.19
59043;BME280;44826;51.596;5.624;2023-02-05T01:11:09;103546.94;;;6.86;97.07
59043;BME280;44826;51.596;5.624;2023-02-05T01:13:36;103552.09;;;6.86;97.55
59043;BME280;44826;51.596;5.624;2023-02-05T01:16:01;103540.94;;;6.87;97.15
59043;BME280;44826;51.596;5.624;2023-02-05T01:18:26;103539.25;;;6.87;97.54
59043;BME280;44826;51.596;5.624;2023-02-05T01:20:52;103536.69;;;6.89;97.33
59043;BME280;44826;51.596;5.624;2023-02-05T01:23:17;103541.13;;;6.91;97.92
59043;BME280;44826;51.596;5.624;2023-02-05T01:25:42;103535.03;;;6.91;97.56
59043;BME280;44826;51.596;5.624;2023-02-05T01:28:08;103540.22;;;6.91;97.24
59043;BME280;44826;51.596;5.624;2023-02-05T01:30:34;103555.75;;;6.91;97.84
59043;BME280;44826;51.596;5.624;2023-02-05T01:33:00;103539.34;;;6.90;97.15
59043;BME280;44826;51.596;5.624;2023-02-05T01:35:25;103552.22;;;6.89;97.36
59043;BME280;44826;51.596;5.624;2023-02-05T01:37:51;103560.69;;;6.84;97.21
59043;BME280;44826;51.596;5.624;2023-02-05T01:40:17;103551.13;;;6.82;97.62
59043;BME280;44826;51.596;5.624;2023-02-05T01:42:43;103556.31;;;6.82;97.50
59043;BME280;44826;51.596;5.624;2023-02-05T01:47:48;103547.47;;;6.75;97.67
59043;BME280;44826;51.596;5.624;2023-02-05T01:50:15;103557.81;;;6.75;97.71
59043;BME280;44826;51.596;5.624;2023-02-05T01:52:41;103556.88;;;6.73;98.22
59043;BME280;44826;51.596;5.624;2023-02-05T01:55:07;103562.06;;;6.73;97.71
59043;BME280;44826;51.596;5.624;2023-02-05T01:57:33;103555.13;;;6.72;97.69
59043;BME280;44826;51.596;5.624;2023-02-05T02:00:01;103549.00;;;6.70;97.91
59043;BME280;44826;51.596;5.624;2023-02-05T02:02:26;103549.81;;;6.69;98.11
59043;BME280;44826;51.596;5.624;2023-02-05T02:04:56;103555.00;;;6.69;98.47
59043;BME280;44826;51.596;5.624;2023-02-05T02:07:24;103558.53;;;6.71;98.36
59043;BME280;44826;51.596;5.624;2023-02-05T02:09:51;103553.34;;;6.71;98.56
59043;BME280;44826;51.596;5.624;2023-02-05T02:12:21;103537.84;;;6.71;98.77
59043;BME280;44826;51.596;5.624;2023-02-05T02:14:50;103534.41;;;6.72;98.69
59043;BME280;44826;51.596;5.624;2023-02-05T02:17:17;103531.00;;;6.73;99.06
59043;BME280;44826;51.596;5.624;2023-02-05T02:28:22;103546.63;;;6.76;98.22
59043;BME280;44826;51.596;5.624;2023-02-05T02:31:01;103539.69;;;6.75;97.02
59043;BME280;44826;51.596;5.624;2023-02-05T02:33:40;103526.66;;;6.72;97.79
59043;BME280;44826;51.596;5.624;2023-02-05T02:36:29;103522.31;;;6.71;98.24
59043;BME280;44826;51.596;5.624;2023-02-05T02:39:10;103521.47;;;6.72;98.29
59043;BME280;44826;51.596;5.624;2023-02-05T02:41:50;103511.13;;;6.72;98.20
59043;BME280;44826;51.596;5.624;2023-02-05T02:44:47;103506.78;;;6.71;98.31
59043;BME280;44826;51.596;5.624;2023-02-05T02:47:20;103511.03;;;6.69;98.57
59043;BME280;44826;51.596;5.624;2023-02-05T02:49:52;103502.41;;;6.68;98.46
59043;BME280;44826;51.596;5.624;2023-02-05T02:52:21;103498.06;;;6.67;98.13
59043;BME280;44826;51.596;5.624;2023-02-05T02:54:50;103498.91;;;6.68;98.30
59043;BME280;44826;51.596;5.624;2023-02-05T02:57:17;103499.75;;;6.67;98.23
59043;BME280;44826;51.596;5.624;2023-02-05T02:59:44;103514.41;;;6.66;98.29
59043;BME280;44826;51.596;5.624;2023-02-05T03:02:12;103522.13;;;6.65;98.37
59043;BME280;44826;51.596;5.624;2023-02-05T03:04:41;103514.25;;;6.62;98.07
59043;BME280;44826;51.596;5.624;2023-02-05T03:07:14;103515.91;;;6.60;98.39
59043;BME280;44826;51.596;5.624;2023-02-05T03:12:49;103501.22;;;6.59;97.96
59043;BME280;44826;51.596;5.624;2023-02-05T03:15:14;103489.88;;;6.55;98.33
59043;BME280;44826;51.596;5.624;2023-02-05T03:17:41;103491.66;;;6.56;98.19
59043;BME280;44826;51.596;5.624;2023-02-05T03:22:37;103488.25;;;6.57;98.30
59043;BME280;44826;51.596;5.624;2023-02-05T03:25:03;103490.84;;;6.59;98.15
59043;BME280;44826;51.596;5.624;2023-02-05T03:27:28;103482.16;;;6.57;97.91
59043;BME280;44826;51.596;5.624;2023-02-05T03:29:53;103474.31;;;6.53;97.96
59043;BME280;44826;51.596;5.624;2023-02-05T03:32:33;103480.28;;;6.52;98.01
59043;BME280;44826;51.596;5.624;2023-02-05T03:35:21;103471.78;;;6.55;98.00
59043;BME280;44826;51.596;5.624;2023-02-05T03:40:42;103503.69;;;6.56;97.72
59043;BME280;44826;51.596;5.624;2023-02-05T03:43:20;103507.09;;;6.55;97.66
59043;BME280;44826;51.596;5.624;2023-02-05T03:46:05;103507.88;;;6.52;97.39
59043;BME280;44826;51.596;5.624;2023-02-05T03:48:52;103513.78;;;6.48;97.57
59043;BME280;44826;51.596;5.624;2023-02-05T03:56:25;103500.63;;;6.42;97.20
59043;BME280;44826;51.596;5.624;2023-02-05T03:58:53;103509.16;;;6.39;96.90
59043;BME280;44826;51.596;5.624;2023-02-05T04:01:23;103511.69;;;6.37;97.28
59043;BME280;44826;51.596;5.624;2023-02-05T04:03:49;103509.03;;;6.36;97.39
59043;BME280;44826;51.596;5.624;2023-02-05T04:06:15;103515.03;;;6.35;97.17
59043;BME280;44826;51.596;5.624;2023-02-05T04:08:40;103518.44;;;6.34;97.07
59043;BME280;44826;51.596;5.624;2023-02-05T04:11:08;103520.13;;;6.32;96.95
59043;BME280;44826;51.596;5.624;2023-02-05T04:13:34;103527.88;;;6.32;96.97
59043;BME280;44826;51.596;5.624;2023-02-05T04:15:59;103529.56;;;6.31;96.75
59043;BME280;44826;51.596;5.624;2023-02-05T04:18:24;103526.88;;;6.28;96.29
59043;BME280;44826;51.596;5.624;2023-02-05T04:20:50;103522.47;;;6.26;96.05
59043;BME280;44826;51.596;5.624;2023-02-05T04:23:15;103533.66;;;6.25;96.24
59043;BME280;44826;51.596;5.624;2023-02-05T04:25:40;103539.75;;;6.27;95.94
59043;BME280;44826;51.596;5.624;2023-02-05T04:28:06;103533.66;;;6.25;95.90
59043;BME280;44826;51.596;5.624;2023-02-05T04:30:32;103525.00;;;6.24;95.69
59043;BME280;44826;51.596;5.624;2023-02-05T04:32:57;103518.97;;;6.23;96.16
59043;BME280;44826;51.596;5.624;2023-02-05T04:35:22;103519.81;;;6.24;95.79
59043;BME280;44826;51.596;5.624;2023-02-05T04:37:48;103517.31;;;6.26;95.73
59043;BME280;44826;51.596;5.624;2023-02-05T04:40:13;103513.91;;;6.27;95.80
59043;BME280;44826;51.596;5.624;2023-02-05T04:42:38;103514.75;;;6.27;95.37
59043;BME280;44826;51.596;5.624;2023-02-05T04:45:04;103513.09;;;6.28;95.80
59043;BME280;44826;51.596;5.624;2023-02-05T04:47:30;103510.50;;;6.28;95.94
59043;BME280;44826;51.596;5.624;2023-02-05T04:49:55;103507.09;;;6.29;95.26
59043;BME280;44826;51.596;5.624;2023-02-05T04:52:21;103507.94;;;6.29;95.58
59043;BME280;44826;51.596;5.624;2023-02-05T04:54:46;103506.25;;;6.30;95.47
59043;BME280;44826;51.596;5.624;2023-02-05T04:57:11;103514.06;;;6.31;95.27
59043;BME280;44826;51.596;5.624;2023-02-05T04:59:36;103505.44;;;6.31;95.16
59043;BME280;44826;51.596;5.624;2023-02-05T05:02:02;103508.84;;;6.30;95.06
59043;BME280;44826;51.596;5.624;2023-02-05T05:04:27;103512.38;;;6.32;94.94
59043;BME280;44826;51.596;5.624;2023-02-05T05:06:52;103510.59;;;6.31;94.92
59043;BME280;44826;51.596;5.624;2023-02-05T05:09:17;103509.66;;;6.29;95.09
59043;BME280;44826;51.596;5.624;2023-02-05T05:11:45;103510.50;;;6.28;94.81
59043;BME280;44826;51.596;5.624;2023-02-05T05:14:10;103507.91;;;6.28;94.83
59043;BME280;44826;51.596;5.624;2023-02-05T05:16:35;103506.16;;;6.27;94.81
59043;BME280;44826;51.596;5.624;2023-02-05T05:19:01;103500.16;;;6.28;94.65
59043;BME280;44826;51.596;5.624;2023-02-05T05:21:26;103500.16;;;6.28;94.61
59043;BME280;44826;51.596;5.624;2023-02-05T05:23:51;103507.94;;;6.29;94.72
59043;BME280;44826;51.596;5.624;2023-02-05T05:26:16;103501.97;;;6.30;94.63
59043;BME280;44826;51.596;5.624;2023-02-05T05:28:42;103507.13;;;6.30;94.41
59043;BME280;44826;51.596;5.624;2023-02-05T05:31:10;103509.78;;;6.32;94.33
59043;BME280;44826;51.596;5.624;2023-02-05T05:33:36;103503.69;;;6.30;94.33
59043;BME280;44826;51.596;5.624;2023-02-05T05:36:01;103501.09;;;6.30;94.69
59043;BME280;44826;51.596;5.624;2023-02-05T05:38:26;103493.34;;;6.30;94.61
59043;BME280;44826;51.596;5.624;2023-02-05T05:40:52;103501.03;;;6.28;94.59
59043;BME280;44826;51.596;5.624;2023-02-05T05:43:36;103491.56;;;6.29;94.69
59043;BME280;44826;51.596;5.624;2023-02-05T05:46:15;103487.22;;;6.28;94.87
59043;BME280;44826;51.596;5.624;2023-02-05T05:48:46;103488.06;;;6.27;94.47
59043;BME280;44826;51.596;5.624;2023-02-05T05:51:12;103484.41;;;6.21;95.02
59043;BME280;44826;51.596;5.624;2023-02-05T05:53:37;103497.31;;;6.20;94.88
59043;BME280;44826;51.596;5.624;2023-02-05T05:56:02;103491.13;;;6.16;95.44
59043;BME280;44826;51.596;5.624;2023-02-05T05:58:28;103500.56;;;6.14;95.30
59043;BME280;44826;51.596;5.624;2023-02-05T06:00:53;103494.44;;;6.12;95.74
59043;BME280;44826;51.596;5.624;2023-02-05T06:03:19;103491.75;;;6.09;96.46
59043;BME280;44826;51.596;5.624;2023-02-05T06:05:46;103477.94;;;6.08;96.81
59043;BME280;44826;51.596;5.624;2023-02-05T06:08:11;103482.22;;;6.08;97.06
59043;BME280;44826;51.596;5.624;2023-02-05T06:10:38;103485.69;;;6.08;97.48
59043;BME280;44826;51.596;5.624;2023-02-05T06:13:03;103475.41;;;6.10;96.75
59043;BME280;44826;51.596;5.624;2023-02-05T06:15:28;103471.88;;;6.08;96.77
59043;BME280;44826;51.596;5.624;2023-02-05T06:17:54;103472.66;;;6.05;96.54
59043;BME280;44826;51.596;5.624;2023-02-05T06:20:19;103466.44;;;6.00;96.63
59043;BME280;44826;51.596;5.624;2023-02-05T06:22:44;103478.56;;;6.01;96.18
59043;BME280;44826;51.596;5.624;2023-02-05T06:25:10;103486.16;;;5.98;96.47
59043;BME280;44826;51.596;5.624;2023-02-05T06:27:35;103483.53;;;5.97;96.97
59043;BME280;44826;51.596;5.624;2023-02-05T06:30:00;103477.41;;;5.95;96.59
59043;BME280;44826;51.596;5.624;2023-02-05T06:32:26;103483.34;;;5.92;97.08
59043;BME280;44826;51.596;5.624;2023-02-05T06:34:51;103484.13;;;5.89;97.13
59043;BME280;44826;51.596;5.624;2023-02-05T06:37:17;103489.22;;;5.88;97.26
59043;BME280;44826;51.596;5.624;2023-02-05T06:39:42;103496.91;;;5.86;97.61
59043;BME280;44826;51.596;5.624;2023-02-05T06:42:08;103493.38;;;5.84;97.54
59043;BME280;44826;51.596;5.624;2023-02-05T06:44:33;103504.66;;;5.86;97.64
59043;BME280;44826;51.596;5.624;2023-02-05T06:46:59;103512.28;;;5.83;97.23
59043;BME280;44826;51.596;5.624;2023-02-05T06:49:25;103526.00;;;5.81;98.23
59043;BME280;44826;51.596;5.624;2023-02-05T06:51:50;103536.38;;;5.82;96.92
59043;BME280;44826;51.596;5.624;2023-02-05T06:54:15;103530.16;;;5.77;96.57
59043;BME280;44826;51.596;5.624;2023-02-05T06:56:41;103542.84;;;5.71;96.28
59043;BME280;44826;51.596;5.624;2023-02-05T06:59:06;103544.13;;;5.59;96.76
59043;BME280;44826;51.596;5.624;2023-02-05T07:01:31;103568.06;;;5.55;96.54
59043;BME280;44826;51.596;5.624;2023-02-05T07:03:56;103571.22;;;5.48;96.39
59043;BME280;44826;51.596;5.624;2023-02-05T07:06:22;103578.91;;;5.46;96.12
59043;BME280;44826;51.596;5.624;2023-02-05T07:08:49;103594.91;;;5.38;95.40
59043;BME280;44826;51.596;5.624;2023-02-05T07:11:15;103615.44;;;5.35;95.34
59043;BME280;44826;51.596;5.624;2023-02-05T07:13:40;103613.69;;;5.34;94.56
59043;BME280;44826;51.596;5.624;2023-02-05T07:16:06;103609.00;;;5.25;94.59
59043;BME280;44826;51.596;5.624;2023-02-05T07:18:32;103625.53;;;5.28;93.36
59043;BME280;44826;51.596;5.624;2023-02-05T07:20:57;103626.09;;;5.21;93.54
59043;BME280;44826;51.596;5.624;2023-02-05T07:23:22;103619.84;;;5.16;93.02
59043;BME280;44826;51.596;5.624;2023-02-05T07:25:48;103634.50;;;5.17;92.92
59043;BME280;44826;51.596;5.624;2023-02-05T07:28:13;103640.25;;;5.10;93.01
59043;BME280;44826;51.596;5.624;2023-02-05T07:30:38;103628.28;;;5.12;93.25
59043;BME280;44826;51.596;5.624;2023-02-05T07:33:03;103636.84;;;5.11;92.81
59043;BME280;44826;51.596;5.624;2023-02-05T07:35:30;103640.34;;;5.13;92.47
59043;BME280;44826;51.596;5.624;2023-02-05T07:37:56;103644.31;;;5.05;92.38
59043;BME280;44826;51.596;5.624;2023-02-05T07:40:21;103651.91;;;5.01;91.90
59043;BME280;44826;51.596;5.624;2023-02-05T07:42:47;103656.00;;;4.96;92.46
59043;BME280;44826;51.596;5.624;2023-02-05T07:45:12;103665.63;;;5.00;92.76
59043;BME280;44826;51.596;5.624;2023-02-05T07:47:37;103658.72;;;4.99;92.27
59043;BME280;44826;51.596;5.624;2023-02-05T07:50:03;103677.81;;;5.03;92.11
59043;BME280;44826;51.596;5.624;2023-02-05T07:52:30;103695.88;;;5.03;92.56
59043;BME280;44826;51.596;5.624;2023-02-05T07:54:56;103686.41;;;5.04;92.87
59043;BME280;44826;51.596;5.624;2023-02-05T07:57:21;103683.03;;;5.05;93.13
59043;BME280;44826;51.596;5.624;2023-02-05T07:59:46;103704.34;;;5.00;93.58
59043;BME280;44826;51.596;5.624;2023-02-05T08:02:12;103717.38;;;5.04;93.04
59043;BME280;44826;51.596;5.624;2023-02-05T08:04:37;103712.06;;;5.00;93.55
59043;BME280;44826;51.596;5.624;2023-02-05T08:07:02;103709.59;;;5.02;93.54
59043;BME280;44826;51.596;5.624;2023-02-05T08:09:28;103712.16;;;5.02;93.39
59043;BME280;44826;51.596;5.624;2023-02-05T08:11:53;103717.38;;;5.04;93.46
59043;BME280;44826;51.596;5.624;2023-02-05T08:14:18;103721.78;;;5.06;93.75
59043;BME280;44826;51.596;5.624;2023-02-05T08:16:44;103715.00;;;5.08;94.17
59043;BME280;44826;51.596;5.624;2023-02-05T08:19:15;103712.50;;;5.10;94.24
59043;BME280;44826;51.596;5.624;2023-02-05T08:21:41;103718.53;;;5.10;93.55
59043;BME280;44826;51.596;5.624;2023-02-05T08:24:07;103706.38;;;5.08;93.28
59043;BME280;44826;51.596;5.624;2023-02-05T08:26:32;103711.47;;;5.06;93.46
59043;BME280;44826;51.596;5.624;2023-02-05T08:28:59;103710.44;;;5.03;93.31
59043;BME280;44826;51.596;5.624;2023-02-05T08:31:25;103719.16;;;5.05;92.81
59043;BME280;44826;51.596;5.624;2023-02-05T08:33:50;103719.16;;;5.05;92.52
59043;BME280;44826;51.596;5.624;2023-02-05T08:36:19;103719.16;;;5.05;92.83
59043;BME280;44826;51.596;5.624;2023-02-05T08:38:44;103714.00;;;5.05;92.59
59043;BME280;44826;51.596;5.624;2023-02-05T08:41:10;103720.16;;;5.08;92.30
59043;BME280;44826;51.596;5.624;2023-02-05T08:43:46;103723.63;;;5.09;92.14
59043;BME280;44826;51.596;5.624;2023-02-05T08:46:13;103718.53;;;5.10;91.47
59043;BME280;44826;51.596;5.624;2023-02-05T08:48:39;103726.47;;;5.15;91.45
59043;BME280;44826;51.596;5.624;2023-02-05T08:51:05;103726.75;;;5.21;91.69
59043;BME280;44826;51.596;5.624;2023-02-05T08:53:31;103735.56;;;5.26;91.33
59043;BME280;44826;51.596;5.624;2023-02-05T08:55:58;103718.56;;;5.31;90.34
59043;BME280;44826;51.596;5.624;2023-02-05T08:58:24;103725.63;;;5.36;90.47
59043;BME280;44826;51.596;5.624;2023-02-05T09:00:49;103714.63;;;5.40;89.61
59043;BME280;44826;51.596;5.624;2023-02-05T09:03:15;103721.56;;;5.41;89.65
59043;BME280;44826;51.596;5.624;2023-02-05T09:05:40;103728.63;;;5.45;89.76
59043;BME280;44826;51.596;5.624;2023-02-05T09:08:05;103726.28;;;5.51;88.69
59043;BME280;44826;51.596;5.624;2023-02-05T09:10:31;103733.97;;;5.50;88.43
59043;BME280;44826;51.596;5.624;2023-02-05T09:12:56;103731.31;;;5.48;88.33
59043;BME280;44826;51.596;5.624;2023-02-05T09:15:21;103735.75;;;5.51;88.33
59043;BME280;44826;51.596;5.624;2023-02-05T09:17:46;103733.22;;;5.52;88.43
59043;BME280;44826;51.596;5.624;2023-02-05T09:20:12;103729.91;;;5.55;88.07
59043;BME280;44826;51.596;5.624;2023-02-05T09:22:37;103728.19;;;5.55;87.77
59043;BME280;44826;51.596;5.624;2023-02-05T09:25:04;103738.38;;;5.52;87.93
59043;BME280;44826;51.596;5.624;2023-02-05T09:27:29;103744.50;;;5.54;87.74
59043;BME280;44826;51.596;5.624;2023-02-05T09:29:55;103741.97;;;5.56;87.56
59043;BME280;44826;51.596;5.624;2023-02-05T09:32:20;103753.25;;;5.58;87.58
59043;BME280;44826;51.596;5.624;2023-02-05T09:34:45;103767.06;;;5.58;87.70
59043;BME280;44826;51.596;5.624;2023-02-05T09:37:13;103755.78;;;5.56;88.19
59043;BME280;44826;51.596;5.624;2023-02-05T09:39:38;103755.81;;;5.58;88.85
59043;BME280;44826;51.596;5.624;2023-02-05T09:42:22;103755.91;;;5.59;88.50
59043;BME280;44826;51.596;5.624;2023-02-05T09:45:10;103752.44;;;5.59;88.13
59043;BME280;44826;51.596;5.624;2023-02-05T09:47:46;103756.84;;;5.61;88.49
59043;BME280;44826;51.596;5.624;2023-02-05T09:50:22;103764.72;;;5.65;87.73
59043;BME280;44826;51.596;5.624;2023-02-05T09:52:58;103763.06;;;5.67;87.76
59043;BME280;44826;51.596;5.624;2023-02-05T09:55:28;103766.59;;;5.69;87.64
59043;BME280;44826;51.596;5.624;2023-02-05T09:57:59;103758.19;;;5.73;87.60
59043;BME280;44826;51.596;5.624;2023-02-05T10:00:48;103749.75;;;5.77;87.40
59043;BME280;44826;51.596;5.624;2023-02-05T10:03:30;103755.28;;;5.86;87.09
59043;BME280;44826;51.596;5.624;2023-02-05T10:14:21;103753.47;;;6.05;86.39
59043;BME280;44826;51.596;5.624;2023-02-05T10:17:08;103749.38;;;6.10;86.76
59043;BME280;44826;51.596;5.624;2023-02-05T10:25:50;103736.25;;;6.27;85.77
59043;BME280;44826;51.596;5.624;2023-02-05T10:28:35;103724.38;;;6.32;84.55
59043;BME280;44826;51.596;5.624;2023-02-05T10:31:22;103725.28;;;6.34;85.24
59043;BME280;44826;51.596;5.624;2023-02-05T10:33:53;103729.59;;;6.33;85.85
59043;BME280;44826;51.596;5.624;2023-02-05T10:36:23;103735.06;;;6.41;85.11
59043;BME280;44826;51.596;5.624;2023-02-05T10:38:50;103739.53;;;6.45;84.50
59043;BME280;44826;51.596;5.624;2023-02-05T10:41:38;103749.28;;;6.52;84.46
59043;BME280;44826;51.596;5.624;2023-02-05T10:44:22;103750.31;;;6.56;83.60
59043;BME280;44826;51.596;5.624;2023-02-05T10:46:49;103749.53;;;6.59;84.35
59043;BME280;44826;51.596;5.624;2023-02-05T10:51:56;103735.78;;;6.60;81.87
59043;BME280;44826;51.596;5.624;2023-02-05T10:54:29;103727.84;;;6.55;82.03
59043;BME280;44826;51.596;5.624;2023-02-05T10:56:56;103754.44;;;6.52;81.49
59043;BME280;44826;51.596;5.624;2023-02-05T10:59:31;103743.13;;;6.49;82.00
59043;BME280;44826;51.596;5.624;2023-02-05T11:02:04;103771.53;;;6.47;80.75
59043;BME280;44826;51.596;5.624;2023-02-05T11:04:47;103770.63;;;6.47;81.17
59043;BME280;44826;51.596;5.624;2023-02-05T11:07:23;103772.25;;;6.45;81.22
59043;BME280;44826;51.596;5.624;2023-02-05T11:09:49;103771.41;;;6.44;80.77
59043;BME280;44826;51.596;5.624;2023-02-05T11:12:30;103763.63;;;6.44;80.57
59043;BME280;44826;51.596;5.624;2023-02-05T11:14:59;103755.88;;;6.44;80.00
59043;BME280;44826;51.596;5.624;2023-02-05T11:17:33;103750.09;;;6.51;81.31
59043;BME280;44826;51.596;5.624;2023-02-05T11:22:32;103771.34;;;6.65;80.27
59043;BME280;44826;51.596;5.624;2023-02-05T11:25:17;103761.16;;;6.70;80.10
59043;BME280;44826;51.596;5.624;2023-02-05T11:27:57;103768.22;;;6.74;78.53
59043;BME280;44826;51.596;5.624;2023-02-05T11:32:56;103760.22;;;6.68;78.37
59043;BME280;44826;51.596;5.624;2023-02-05T11:38:05;103783.44;;;6.66;77.84
59043;BME280;44826;51.596;5.624;2023-02-05T11:40:31;103783.44;;;6.66;78.98
59043;BME280;44826;51.596;5.624;2023-02-05T11:43:07;103774.69;;;6.63;78.84
59043;BME280;44826;51.596;5.624;2023-02-05T11:45:40;103769.53;;;6.63;78.80
59043;BME280;44826;51.596;5.624;2023-02-05T11:48:37;103748.75;;;6.61;78.90
59043;BME280;44826;51.596;5.624;2023-02-05T11:51:05;103752.13;;;6.59;78.20
59043;BME280;44826;51.596;5.624;2023-02-05T11:53:33;103749.56;;;6.60;78.30
59043;BME280;44826;51.596;5.624;2023-02-05T11:56:02;103750.50;;;6.62;78.60
59043;BME280;44826;51.596;5.624;2023-02-05T11:58:30;103750.41;;;6.59;77.25
59043;BME280;44826;51.596;5.624;2023-02-05T12:00:58;103751.34;;;6.61;78.57
59043;BME280;44826;51.596;5.624;2023-02-05T12:03:29;103752.22;;;6.62;78.22
59043;BME280;44826;51.596;5.624;2023-02-05T12:06:06;103749.81;;;6.66;78.15
59043;BME280;44826;51.596;5.624;2023-02-05T12:09:02;103755.97;;;6.70;78.15
59043;BME280;44826;51.596;5.624;2023-02-05T12:11:39;103757.63;;;6.68;78.12
59043;BME280;44826;51.596;5.624;2023-02-05T12:14:35;103772.31;;;6.69;77.44
59043;BME280;44826;51.596;5.624;2023-02-05T12:19:57;103775.03;;;6.72;77.78
59043;BME280;44826;51.596;5.624;2023-02-05T12:36:02;103774.66;;;6.86;76.41
59043;BME280;44826;51.596;5.624;2023-02-05T12:41:18;103792.19;;;6.93;76.09
59043;BME280;44826;51.596;5.624;2023-02-05T12:43:47;103789.72;;;6.96;74.79
59043;BME280;44826;51.596;5.624;2023-02-05T12:46:44;103781.59;;;6.87;75.47
59043;BME280;44826;51.596;5.624;2023-02-05T12:49:28;103780.78;;;6.88;74.96
59043;BME280;44826;51.596;5.624;2023-02-05T12:55:29;103792.44;;;6.99;75.29
59043;BME280;44826;51.596;5.624;2023-02-05T12:58:03;103772.72;;;7.03;74.58
59043;BME280;44826;51.596;5.624;2023-02-05T13:00:40;103763.22;;;7.03;74.53
59043;BME280;44826;51.596;5.624;2023-02-05T13:03:22;103765.09;;;7.07;74.16
59043;BME280;44826;51.596;5.624;2023-02-05T13:06:08;103772.16;;;7.11;75.09
59043;BME280;44826;51.596;5.624;2023-02-05T13:08:44;103751.66;;;7.18;74.62
59043;BME280;44826;51.596;5.624;2023-02-05T13:14:02;103763.47;;;7.35;73.81
59043;BME280;44826;51.596;5.624;2023-02-05T13:16:43;103781.84;;;7.41;73.51
59043;BME280;44826;51.596;5.624;2023-02-05T13:19:21;103771.75;;;7.49;72.17
59043;BME280;44826;51.596;5.624;2023-02-05T13:21:50;103773.56;;;7.52;72.58
59043;BME280;44826;51.596;5.624;2023-02-05T13:24:56;103770.88;;;7.49;73.57
59043;BME280;44826;51.596;5.624;2023-02-05T13:27:46;103777.00;;;7.51;71.27
59043;BME280;44826;51.596;5.624;2023-02-05T13:30:36;103780.97;;;7.41;70.35
59043;BME280;44826;51.596;5.624;2023-02-05T13:33:05;103784.28;;;7.37;71.48
59043;BME280;44826;51.596;5.624;2023-02-05T13:35:40;103779.09;;;7.37;70.92
59043;BME280;44826;51.596;5.624;2023-02-05T13:38:37;103775.13;;;7.47;71.50
59043;BME280;44826;51.596;5.624;2023-02-05T13:46:50;103782.88;;;7.98;69.36
59043;BME280;44826;51.596;5.624;2023-02-05T13:52:56;103802.19;;;7.81;71.13
59043;BME280;44826;51.596;5.624;2023-02-05T13:55:35;103818.25;;;7.96;70.54
59043;BME280;44826;51.596;5.624;2023-02-05T13:58:17;103824.81;;;8.12;69.33
59043;BME280;44826;51.596;5.624;2023-02-05T14:00:51;103832.00;;;7.94;69.14
59043;BME280;44826;51.596;5.624;2023-02-05T14:03:27;103821.41;;;7.87;69.01
59043;BME280;44826;51.596;5.624;2023-02-05T14:05:55;103832.50;;;7.83;69.06
59043;BME280;44826;51.596;5.624;2023-02-05T14:08:24;103835.09;;;7.83;69.69
59043;BME280;44826;51.596;5.624;2023-02-05T14:10:58;103830.16;;;7.91;70.49
59043;BME280;44826;51.596;5.624;2023-02-05T14:13:25;103833.66;;;7.92;67.95
59043;BME280;44826;51.596;5.624;2023-02-05T14:15:55;103824.47;;;8.01;69.06
59043;BME280;44826;51.596;5.624;2023-02-05T14:24:24;103831.63;;;7.83;69.92
59043;BME280;44826;51.596;5.624;2023-02-05T14:26:54;103835.38;;;7.67;69.54
59043;BME280;44826;51.596;5.624;2023-02-05T14:37:02;103825.91;;;7.43;70.23
59043;BME280;44826;51.596;5.624;2023-02-05T14:39:32;103831.94;;;7.42;69.74
59043;BME280;44826;51.596;5.624;2023-02-05T14:42:00;103830.53;;;7.52;70.13
59043;BME280;44826;51.596;5.624;2023-02-05T14:44:35;103832.22;;;7.50;69.40
59043;BME280;44826;51.596;5.624;2023-02-05T14:47:24;103834.06;;;7.54;70.26
59043;BME280;44826;51.596;5.624;2023-02-05T14:49:58;103838.66;;;7.61;68.88